Time;durP1;ratioP1;P1;durP2;ratioP2;P2;SDS_P1;SDS_P2;PMS_P1;PMS_P2;Temp;Humidity;BMP_temperature;BMP_pressure;BME280_temperature;BME280_humidity;BME280_pressure;Samples;Min_cycle;Max_cycle;Signal;HPM_P1;HPM_P2
2021/06/09 00:00:41;;;;;;;15.40;12.38;;;;;;;-145.50;100.00;65435.88;4883744;29;20426;-37
2021/06/09 00:03:08;;;;;;;14.82;12.27;;;;;;;-145.50;100.00;65435.88;4901027;29;20091;-37
2021/06/09 00:05:35;;;;;;;16.85;13.15;;;;;;;-145.50;100.00;65435.88;4887239;29;20083;-37
2021/06/09 00:08:01;;;;;;;17.23;12.45;;;;;;;-145.50;100.00;65435.88;4892200;29;20052;-37
2021/06/09 00:10:28;;;;;;;13.30;11.90;;;;;;;-145.50;100.00;65435.88;4894347;29;20483;-37
2021/06/09 00:12:54;;;;;;;18.20;12.80;;;;;;;-145.50;100.00;65435.88;4883455;29;20135;-37
2021/06/09 00:15:21;;;;;;;16.58;12.93;;;;;;;-145.50;100.00;65435.88;4895990;29;20108;-37
2021/06/09 00:17:48;;;;;;;18.67;12.45;;;;;;;-145.50;100.00;65435.88;4872698;29;20453;-37
2021/06/09 00:20:19;;;;;;;18.17;12.25;;;;;;;-145.50;100.00;65435.88;4891040;29;20076;-37
2021/06/09 00:22:46;;;;;;;15.50;12.48;;;;;;;-145.50;100.00;65435.88;4890786;29;20127;-37
2021/06/09 00:25:17;;;;;;;15.27;12.80;;;;;;;-145.50;100.00;65435.88;4893736;29;20152;-37
2021/06/09 00:27:46;;;;;;;14.73;12.57;;;;;;;-145.50;100.00;65435.88;4893408;29;20091;-37
2021/06/09 00:30:21;;;;;;;16.35;12.07;;;;;;;-145.50;100.00;65435.88;4894248;29;20053;-37
2021/06/09 00:32:47;;;;;;;15.98;12.77;;;;;;;-145.50;100.00;65435.88;4893014;29;20139;-37
2021/06/09 00:35:14;;;;;;;14.70;12.43;;;;;;;-145.50;100.00;65435.88;4889916;29;20135;-37
2021/06/09 00:37:41;;;;;;;16.75;12.55;;;;;;;-145.50;100.00;65435.88;4894720;29;20092;-37
2021/06/09 00:40:09;;;;;;;15.45;13.18;;;;;;;-145.50;100.00;65435.88;4890002;29;20131;-37
2021/06/09 00:42:37;;;;;;;18.35;14.20;;;;;;;-145.50;100.00;65435.88;4890832;29;20151;-37
2021/06/09 00:45:07;;;;;;;18.90;14.90;;;;;;;-145.50;100.00;65435.88;4891797;29;20098;-38
2021/06/09 00:47:34;;;;;;;19.27;14.90;;;;;;;-145.50;100.00;65435.88;4890009;29;20139;-37
2021/06/09 00:50:00;;;;;;;21.67;15.50;;;;;;;-145.50;100.00;65435.88;4894089;29;20087;-37
2021/06/09 00:52:28;;;;;;;21.35;15.68;;;;;;;-145.50;100.00;65435.88;4886876;29;20056;-37
2021/06/09 00:54:55;;;;;;;17.60;14.67;;;;;;;-145.50;100.00;65435.88;4894218;29;20088;-37
2021/06/09 00:57:24;;;;;;;19.50;15.35;;;;;;;-145.50;100.00;65435.88;4883292;29;20139;-37
2021/06/09 00:59:50;;;;;;;17.95;12.88;;;;;;;-145.50;100.00;65435.88;4887232;29;20131;-37
2021/06/09 01:02:17;;;;;;;16.70;13.18;;;;;;;-145.50;100.00;65435.88;4886869;29;20139;-37
2021/06/09 01:04:43;;;;;;;17.20;13.23;;;;;;;-145.50;100.00;65435.88;4886741;29;20456;-37
2021/06/09 01:07:12;;;;;;;16.33;13.82;;;;;;;-145.50;100.00;65435.88;4895110;29;20160;-37
2021/06/09 01:09:38;;;;;;;17.10;13.77;;;;;;;-145.50;100.00;65435.88;4883886;29;20083;-37
2021/06/09 01:12:06;;;;;;;19.48;13.57;;;;;;;-145.50;100.00;65435.88;4889473;29;20715;-37
2021/06/09 01:14:32;;;;;;;19.67;14.93;;;;;;;-145.50;100.00;65435.88;4889512;29;20064;-37
2021/06/09 01:16:59;;;;;;;20.27;15.13;;;;;;;-145.50;100.00;65435.88;4891292;29;20135;-37
2021/06/09 01:19:25;;;;;;;18.27;14.93;;;;;;;-145.50;100.00;65435.88;4886863;29;20092;-37
2021/06/09 01:21:52;;;;;;;18.55;14.80;;;;;;;-145.50;100.00;65435.88;4891280;29;20147;-37
2021/06/09 01:24:18;;;;;;;17.23;13.85;;;;;;;-145.50;100.00;65435.88;4885428;29;20139;-37
2021/06/09 01:26:45;;;;;;;20.17;14.90;;;;;;;-145.50;100.00;65435.88;4882437;29;20100;-38
2021/06/09 01:29:11;;;;;;;18.33;15.60;;;;;;;-145.50;100.00;65435.88;4901513;29;20277;-37
2021/06/09 01:31:38;;;;;;;19.13;15.10;;;;;;;-145.50;100.00;65435.88;4887374;29;20151;-37
2021/06/09 01:34:06;;;;;;;18.55;14.90;;;;;;;-145.50;100.00;65435.88;4893637;29;20052;-37
2021/06/09 01:36:38;;;;;;;19.37;16.17;;;;;;;-145.50;100.00;65435.88;4885166;29;20092;-37
2021/06/09 01:39:07;;;;;;;18.90;16.13;;;;;;;-145.50;100.00;65435.88;4891906;29;20092;-37
2021/06/09 01:41:33;;;;;;;19.98;16.70;;;;;;;-145.50;100.00;65435.88;4891884;29;20088;-38
2021/06/09 01:44:00;;;;;;;21.17;16.38;;;;;;;-145.50;100.00;65435.88;4884679;29;20143;-38
2021/06/09 01:46:27;;;;;;;23.48;16.60;;;;;;;-145.50;100.00;65435.88;4892524;29;20079;-38
2021/06/09 01:48:53;;;;;;;21.25;17.10;;;;;;;-145.50;100.00;65435.88;4887155;29;20136;-37
2021/06/09 01:51:20;;;;;;;22.10;17.23;;;;;;;-145.50;100.00;65435.88;4888921;29;20238;-37
2021/06/09 01:53:47;;;;;;;18.98;16.30;;;;;;;-145.50;100.00;65435.88;4884498;29;20088;-37
2021/06/09 01:56:15;;;;;;;20.70;15.88;;;;;;;-145.50;100.00;65435.88;4893962;29;20120;-37
2021/06/09 01:58:41;;;;;;;18.93;15.53;;;;;;;-145.50;100.00;65435.88;4893555;29;20087;-37
2021/06/09 02:01:09;;;;;;;20.15;15.73;;;;;;;-145.50;100.00;65435.88;4887306;29;20162;-37
2021/06/09 02:03:36;;;;;;;;;;;;;;;-145.50;100.00;65435.88;4890835;29;20793;-38
2021/06/09 02:06:03;;;;;;;24.23;16.33;;;;;;;-145.50;100.00;65435.88;4881044;29;20328;-37
2021/06/09 02:08:30;;;;;;;24.27;17.75;;;;;;;-145.50;100.00;65435.88;4890734;29;20140;-37
2021/06/09 02:10:56;;;;;;;21.05;16.65;;;;;;;-145.50;100.00;65435.88;4887562;29;20140;-37
2021/06/09 02:13:25;;;;;;;20.85;17.05;;;;;;;-145.50;100.00;65435.88;4892566;29;20690;-37
2021/06/09 02:15:55;;;;;;;20.58;16.38;;;;;;;-145.50;100.00;65435.88;4892886;29;20072;-38
2021/06/09 02:18:23;;;;;;;22.33;16.40;;;;;;;-145.50;100.00;65435.88;4883229;29;20127;-38
2021/06/09 02:20:53;;;;;;;19.40;15.63;;;;;;;-145.50;100.00;65435.88;4884739;29;20171;-37
2021/06/09 02:23:23;;;;;;;20.15;16.33;;;;;;;-145.50;100.00;65435.88;4886693;29;20461;-37
2021/06/09 02:25:53;;;;;;;22.30;17.05;;;;;;;-145.50;100.00;65435.88;4890230;29;20095;-37
2021/06/09 02:28:20;;;;;;;21.50;16.77;;;;;;;-145.50;100.00;65435.88;4887917;29;20139;-37
2021/06/09 02:30:48;;;;;;;19.02;16.13;;;;;;;-145.50;100.00;65435.88;4892677;29;20123;-37
2021/06/09 02:33:18;;;;;;;18.10;15.13;;;;;;;-145.50;100.00;65435.88;4877535;29;20159;-37
2021/06/09 02:35:45;;;;;;;20.30;16.45;;;;;;;-145.50;100.00;65435.88;4886167;29;20148;-37
2021/06/09 02:38:13;;;;;;;21.65;15.75;;;;;;;-145.50;100.00;65435.88;4893126;29;20082;-37
2021/06/09 02:40:41;;;;;;;21.58;17.00;;;;;;;-145.50;100.00;65435.88;4886765;29;21044;-38
2021/06/09 02:43:08;;;;;;;21.02;16.40;;;;;;;-145.50;100.00;65435.88;4889954;29;20127;-38
2021/06/09 02:45:36;;;;;;;21.27;16.15;;;;;;;-145.50;100.00;65435.88;4885761;29;20140;-37
2021/06/09 02:48:07;;;;;;;22.10;17.30;;;;;;;-145.50;100.00;65435.88;4885533;29;20091;-37
2021/06/09 02:50:34;;;;;;;19.77;16.02;;;;;;;-145.50;100.00;65435.88;4886760;29;20348;-37
2021/06/09 02:53:44;;;;;;;21.15;16.90;;;;;;;-145.50;100.00;65435.88;4888782;29;20076;-37
2021/06/09 02:56:26;;;;;;;21.25;16.35;;;;;;;-145.50;100.00;65435.88;4890988;29;20469;-37
2021/06/09 02:59:04;;;;;;;20.50;16.48;;;;;;;-145.50;100.00;65435.88;4888576;29;20569;-37
2021/06/09 03:01:39;;;;;;;23.42;16.70;;;;;;;-145.50;100.00;65435.88;4879104;29;20057;-38
2021/06/09 03:04:18;;;;;;;20.83;15.60;;;;;;;-145.50;100.00;65435.88;4889461;29;20532;-38
2021/06/09 03:06:54;;;;;;;19.15;15.25;;;;;;;-145.50;100.00;65435.88;4889491;29;20519;-38
2021/06/09 03:09:55;;;;;;;22.02;15.45;;;;;;;-145.50;100.00;65435.88;4883002;29;20151;-38
2021/06/09 03:12:43;;;;;;;19.63;15.65;;;;;;;-145.50;100.00;65435.88;4890816;29;20052;-38
2021/06/09 03:15:20;;;;;;;20.65;15.38;;;;;;;-145.50;100.00;65435.88;4873877;29;20119;-38
2021/06/09 03:17:55;;;;;;;23.63;15.43;;;;;;;-145.50;100.00;65435.88;4890002;29;20107;-38
2021/06/09 03:20:51;;;;;;;20.20;15.32;;;;;;;-145.50;100.00;65435.88;4883432;29;20283;-38
2021/06/09 03:23:43;;;;;;;20.27;16.13;;;;;;;-145.50;100.00;65435.88;4887637;29;20533;-38
2021/06/09 03:26:32;;;;;;;21.25;15.98;;;;;;;-145.50;100.00;65435.88;4880372;29;20080;-38
2021/06/09 03:29:11;;;;;;;22.48;15.40;;;;;;;-145.50;100.00;65435.88;4878384;29;20080;-38
2021/06/09 03:31:45;;;;;;;20.13;16.70;;;;;;;-145.50;100.00;65435.88;4882856;29;20088;-38
2021/06/09 03:34:19;;;;;;;21.98;16.77;;;;;;;-145.50;100.00;65435.88;4889999;29;20473;-38
2021/06/09 03:36:48;;;;;;;20.05;15.63;;;;;;;-145.50;100.00;65435.88;4884226;29;20083;-38
2021/06/09 03:39:18;;;;;;;21.33;16.15;;;;;;;-145.50;100.00;65435.88;4891395;29;20513;-38
2021/06/09 03:41:54;;;;;;;22.70;17.00;;;;;;;-145.50;100.00;65435.88;4880891;29;20096;-38
2021/06/09 03:44:34;;;;;;;25.10;17.63;;;;;;;-145.50;100.00;65435.88;4884375;29;20525;-38
2021/06/09 03:47:02;;;;;;;25.15;17.10;;;;;;;-145.50;100.00;65435.88;4886569;29;20892;-38
2021/06/09 03:49:30;;;;;;;23.83;17.40;;;;;;;-145.50;100.00;65435.88;4891746;29;20079;-38
2021/06/09 03:51:58;;;;;;;24.80;18.63;;;;;;;-145.50;100.00;65435.88;4889874;29;20461;-38
2021/06/09 03:54:30;;;;;;;21.70;16.42;;;;;;;-145.50;100.00;65435.88;4880194;29;20128;-38
2021/06/09 03:56:58;;;;;;;21.42;16.15;;;;;;;-145.50;100.00;65435.88;4883584;29;20494;-38
2021/06/09 03:59:26;;;;;;;22.98;16.92;;;;;;;-145.50;100.00;65435.88;4883200;29;20669;-38
2021/06/09 04:01:55;;;;;;;25.67;18.67;;;;;;;-145.50;100.00;65435.88;4898421;29;20124;-38
2021/06/09 04:04:21;;;;;;;24.48;18.10;;;;;;;-145.50;100.00;65435.88;4891332;29;20503;-38
2021/06/09 04:06:53;;;;;;;24.42;17.95;;;;;;;-145.50;100.00;65435.88;4889083;29;20053;-39
2021/06/09 04:09:22;;;;;;;25.50;19.20;;;;;;;-145.50;100.00;65435.88;4884249;29;20135;-38
2021/06/09 04:11:55;;;;;;;23.17;17.13;;;;;;;-145.50;100.00;65435.88;4873187;29;20154;-38
2021/06/09 04:14:24;;;;;;;22.35;17.55;;;;;;;-145.50;100.00;65435.88;4887846;29;20179;-38
2021/06/09 04:16:54;;;;;;;21.40;17.75;;;;;;;-145.50;100.00;65435.88;4883939;29;20080;-38
2021/06/09 04:19:23;;;;;;;24.23;18.00;;;;;;;-145.50;100.00;65435.88;4891935;29;20123;-38
2021/06/09 04:21:51;;;;;;;24.85;16.98;;;;;;;-145.50;100.00;65435.88;4882305;29;20474;-38
2021/06/09 04:24:17;;;;;;;24.92;18.35;;;;;;;-145.50;100.00;65435.88;4886137;29;20080;-38
2021/06/09 04:26:46;;;;;;;26.50;18.13;;;;;;;-145.50;100.00;65435.88;4879749;29;20670;-38
2021/06/09 04:29:13;;;;;;;25.55;18.88;;;;;;;-145.50;100.00;65435.88;4887345;29;20709;-38
2021/06/09 04:31:39;;;;;;;23.98;18.88;;;;;;;-145.50;100.00;65435.88;4888409;29;20139;-38
2021/06/09 04:34:06;;;;;;;22.88;16.92;;;;;;;-145.50;100.00;65435.88;4883368;29;20059;-38
2021/06/09 04:36:32;;;;;;;20.55;16.52;;;;;;;-145.50;100.00;65435.88;4886101;29;20095;-38
2021/06/09 04:38:59;;;;;;;21.63;15.52;;;;;;;-145.50;100.00;65435.88;4882617;29;20112;-38
2021/06/09 04:41:26;;;;;;;22.63;17.00;;;;;;;-145.50;100.00;65435.88;4890554;29;20484;-38
2021/06/09 04:43:53;;;;;;;23.38;17.95;;;;;;;-145.50;100.00;65435.88;4882721;29;20077;-38
2021/06/09 04:46:21;;;;;;;24.70;18.30;;;;;;;-145.50;100.00;65435.88;4888277;29;20080;-38
2021/06/09 04:49:01;;;;;;;;;;;;;;;-145.50;100.00;65435.88;4889011;29;20049;-38
2021/06/09 04:51:30;;;;;;;21.92;18.13;;;;;;;-145.50;100.00;65435.88;4878923;29;19959;-38
2021/06/09 04:53:57;;;;;;;24.40;17.65;;;;;;;-145.50;100.00;65435.88;4884495;29;20132;-38
2021/06/09 04:56:24;;;;;;;24.50;18.27;;;;;;;-145.50;100.00;65435.88;4884936;29;20461;-38
2021/06/09 04:58:51;;;;;;;26.92;20.65;;;;;;;-145.50;100.00;65435.88;4893310;29;20076;-38
2021/06/09 05:01:17;;;;;;;29.70;21.85;;;;;;;-145.50;100.00;65435.88;4886369;29;20539;-38
2021/06/09 05:03:44;;;;;;;29.90;23.20;;;;;;;-145.50;100.00;65435.88;4893899;29;20080;-38
2021/06/09 05:06:10;;;;;;;28.48;22.13;;;;;;;-145.50;100.00;65435.88;4890456;29;20236;-38
2021/06/09 05:08:37;;;;;;;28.85;23.13;;;;;;;-145.50;100.00;65435.88;4882685;29;20434;-38
2021/06/09 05:11:10;;;;;;;31.75;23.70;;;;;;;-145.50;100.00;65435.88;4890946;29;20481;-38
2021/06/09 05:13:40;;;;;;;35.15;25.20;;;;;;;-145.50;100.00;65435.88;4882963;29;20088;-38
2021/06/09 05:16:11;;;;;;;33.70;25.30;;;;;;;-145.50;100.00;65435.88;4889158;29;20104;-38
2021/06/09 05:18:41;;;;;;;30.08;24.45;;;;;;;-145.50;100.00;65435.88;4883722;29;20048;-38
2021/06/09 05:21:09;;;;;;;32.10;25.48;;;;;;;-145.50;100.00;65435.88;4884380;29;20091;-38
2021/06/09 05:23:40;;;;;;;33.70;25.27;;;;;;;-145.50;100.00;65435.88;4886518;29;20091;-38
2021/06/09 05:26:09;;;;;;;32.30;26.48;;;;;;;-145.50;100.00;65435.88;4892561;29;20099;-38
2021/06/09 05:28:42;;;;;;;37.78;26.92;;;;;;;-145.50;100.00;65435.88;4891229;29;20418;-38
2021/06/09 05:31:09;;;;;;;35.03;27.77;;;;;;;-145.50;100.00;65435.88;4883764;29;20159;-38
2021/06/09 05:33:37;;;;;;;34.65;27.67;;;;;;;-145.50;100.00;65435.88;4884958;29;20535;-38
2021/06/09 05:36:04;;;;;;;45.08;28.67;;;;;;;-145.50;100.00;65435.88;4883885;29;20127;-38
2021/06/09 05:38:31;;;;;;;40.97;28.73;;;;;;;-145.50;100.00;65435.88;4893075;29;20060;-38
2021/06/09 05:40:59;;;;;;;42.25;30.48;;;;;;;-145.50;100.00;65435.88;4887009;29;20127;-38
2021/06/09 05:43:27;;;;;;;35.85;28.55;;;;;;;-145.50;100.00;65435.88;4891728;29;20402;-38
2021/06/09 05:45:55;;;;;;;43.75;30.73;;;;;;;-145.50;100.00;65435.88;4889307;29;20156;-38
2021/06/09 05:48:22;;;;;;;;;;;;;;;-145.50;100.00;65435.88;4876959;29;20049;-38
2021/06/09 05:50:53;;;;;;;42.10;30.92;;;;;;;-145.50;100.00;65435.88;4882098;29;20002;-38
2021/06/09 05:53:22;;;;;;;38.20;30.33;;;;;;;-145.50;100.00;65435.88;4881912;29;20088;-38
2021/06/09 05:55:48;;;;;;;44.90;29.85;;;;;;;-145.50;100.00;65435.88;4890635;29;20140;-38
2021/06/09 05:58:17;;;;;;;41.63;31.67;;;;;;;-145.50;100.00;65435.88;4885226;29;20080;-38
2021/06/09 06:01:05;;;;;;;42.13;32.22;;;;;;;-145.50;100.00;65435.88;4878856;29;20511;-37
2021/06/09 06:03:33;;;;;;;42.97;32.60;;;;;;;-145.50;100.00;65435.88;4876793;29;20048;-38
2021/06/09 06:06:08;;;;;;;39.45;30.15;;;;;;;-145.50;100.00;65435.88;4883652;29;20131;-37
2021/06/09 06:08:36;;;;;;;39.78;31.02;;;;;;;-145.50;100.00;65435.88;4892692;29;20062;-38
2021/06/09 06:11:05;;;;;;;;;;;;;;;-145.50;100.00;65435.88;4885003;29;20088;-37
2021/06/09 06:13:34;;;;;;;43.53;31.83;;;;;;;-145.50;100.00;65435.88;4887001;29;19962;-37
2021/06/09 06:16:01;;;;;;;43.42;32.88;;;;;;;-145.50;100.00;65435.88;4885145;29;20088;-37
2021/06/09 06:18:36;;;;;;;42.30;32.22;;;;;;;-145.50;100.00;65435.88;4888084;29;20501;-37
2021/06/09 06:21:05;;;;;;;42.30;33.97;;;;;;;-145.50;100.00;65435.88;4884955;29;20139;-37
2021/06/09 06:23:32;;;;;;;42.42;32.53;;;;;;;-145.50;100.00;65435.88;4889622;29;20099;-38
2021/06/09 06:26:09;;;;;;;43.42;33.90;;;;;;;-145.50;100.00;65435.88;4883448;29;20367;-37
2021/06/09 06:28:38;;;;;;;;;;;;;;;-145.50;100.00;65435.88;4887314;29;20489;-37
2021/06/09 06:31:10;;;;;;;45.15;32.80;;;;;;;-145.50;100.00;65435.88;4883698;29;19924;-37
2021/06/09 06:33:39;;;;;;;43.10;33.97;;;;;;;-145.50;100.00;65435.88;4883725;29;20163;-37
2021/06/09 06:36:08;;;;;;;49.05;36.20;;;;;;;-145.50;100.00;65435.88;4888658;29;20140;-37
2021/06/09 06:38:37;;;;;;;50.70;37.13;;;;;;;-145.50;100.00;65435.88;4883552;29;20044;-37
2021/06/09 06:41:05;;;;;;;51.45;38.30;;;;;;;-145.50;100.00;65435.88;4890017;29;20056;-37
2021/06/09 06:43:32;;;;;;;48.85;38.33;;;;;;;-145.50;100.00;65435.88;4881936;29;20111;-37
2021/06/09 06:45:59;;;;;;;52.42;37.55;;;;;;;-145.50;100.00;65435.88;4892646;29;20056;-37
2021/06/09 06:48:26;;;;;;;44.40;35.78;;;;;;;-145.50;100.00;65435.88;4890822;29;20095;-37
2021/06/09 06:50:53;;;;;;;46.53;36.42;;;;;;;-145.50;100.00;65435.88;4885933;29;20080;-37
2021/06/09 06:53:20;;;;;;;52.22;37.15;;;;;;;-145.50;100.00;65435.88;4890842;29;20056;-37
2021/06/09 06:55:46;;;;;;;49.33;38.55;;;;;;;-145.50;100.00;65435.88;4878669;29;20140;-37
2021/06/09 06:58:13;;;;;;;50.20;36.85;;;;;;;-145.50;100.00;65435.88;4892798;29;20088;-37
2021/06/09 07:00:40;;;;;;;48.25;37.75;;;;;;;-145.50;100.00;65435.88;4882738;29;20091;-37
2021/06/09 07:03:08;;;;;;;46.45;37.08;;;;;;;-145.50;100.00;65435.88;4888864;29;20051;-37
2021/06/09 07:05:35;;;;;;;47.25;36.65;;;;;;;-145.50;100.00;65435.88;4892509;29;20058;-37
2021/06/09 07:08:04;;;;;;;47.65;36.95;;;;;;;-145.50;100.00;65435.88;4880438;29;20085;-37
2021/06/09 07:10:32;;;;;;;51.20;38.83;;;;;;;-145.50;100.00;65435.88;4888709;29;20483;-37
2021/06/09 07:13:01;;;;;;;47.63;37.55;;;;;;;-145.50;100.00;65435.88;4885680;29;20469;-37
2021/06/09 07:15:30;;;;;;;47.90;38.25;;;;;;;-145.50;100.00;65435.88;4892568;29;20142;-37
2021/06/09 07:17:58;;;;;;;48.88;38.47;;;;;;;-145.50;100.00;65435.88;4884043;29;20473;-37
2021/06/09 07:20:27;;;;;;;50.72;40.60;;;;;;;-145.50;100.00;65435.88;4885241;29;20135;-37
2021/06/09 07:22:54;;;;;;;47.83;36.20;;;;;;;-145.50;100.00;65435.88;4879809;29;20050;-37
2021/06/09 07:25:23;;;;;;;45.75;37.10;;;;;;;-145.50;100.00;65435.88;4890763;29;20183;-37
2021/06/09 07:27:56;;;;;;;46.45;35.08;;;;;;;-145.50;100.00;65435.88;4888472;29;20139;-37
2021/06/09 07:30:28;;;;;;;41.42;33.88;;;;;;;-145.50;100.00;65435.88;4882591;29;20140;-37
2021/06/09 07:32:55;;;;;;;43.70;35.30;;;;;;;-145.50;100.00;65435.88;4892061;29;20135;-37
2021/06/09 07:35:22;;;;;;;45.17;35.25;;;;;;;-145.50;100.00;65435.88;4880917;29;20052;-37
2021/06/09 07:37:51;;;;;;;42.13;33.75;;;;;;;-145.50;100.00;65435.88;4888323;29;20544;-37
2021/06/09 07:40:23;;;;;;;43.53;33.85;;;;;;;-145.50;100.00;65435.88;4883405;29;20064;-37
2021/06/09 07:42:58;;;;;;;40.83;33.40;;;;;;;-145.50;100.00;65435.88;4887096;29;20063;-37
2021/06/09 07:45:26;;;;;;;38.40;30.05;;;;;;;-145.50;100.00;65435.88;4886987;29;20136;-37
2021/06/09 07:47:54;;;;;;;45.45;34.28;;;;;;;-145.50;100.00;65435.88;4887390;29;20091;-37
2021/06/09 07:50:29;;;;;;;;;;;;;;;-145.50;100.00;65435.88;4886337;29;20151;-37
2021/06/09 07:53:07;;;;;;;43.25;32.58;;;;;;;-145.50;100.00;65435.88;4880554;29;19981;-37
2021/06/09 07:55:34;;;;;;;;;;;;;;;-145.50;100.00;65435.88;4888909;29;20095;-37
2021/06/09 07:58:02;;;;;;;41.45;30.35;;;;;;;-145.50;100.00;65435.88;4885781;29;19960;-37
2021/06/09 08:00:29;;;;;;;;;;;;;;;-145.50;100.00;65435.88;4886004;29;20726;-37
2021/06/09 08:02:56;;;;;;;36.95;28.05;;;;;;;-145.50;100.00;65435.88;4876962;29;20018;-37
2021/06/09 08:05:25;;;;;;;37.30;29.02;;;;;;;-145.50;100.00;65435.88;4885838;29;20143;-37
2021/06/09 08:07:52;;;;;;;34.20;28.40;;;;;;;-145.50;100.00;65435.88;4888424;29;20135;-37
2021/06/09 08:10:36;;;;;;;35.15;28.48;;;;;;;-145.50;100.00;65435.88;4883500;29;21285;-37
2021/06/09 08:13:03;;;;;;;33.05;29.10;;;;;;;-145.50;100.00;65435.88;4888808;29;20541;-37
2021/06/09 08:15:31;;;;;;;36.40;28.60;;;;;;;-145.50;100.00;65435.88;4881817;29;20143;-37
2021/06/09 08:17:58;;;;;;;36.35;28.17;;;;;;;-145.50;100.00;65435.88;4883125;29;20171;-37
2021/06/09 08:20:26;;;;;;;33.88;27.20;;;;;;;-145.50;100.00;65435.88;4882018;29;20088;-38
2021/06/09 08:22:52;;;;;;;31.63;26.70;;;;;;;-145.50;100.00;65435.88;4892880;29;20068;-37
2021/06/09 08:25:23;;;;;;;32.63;26.70;;;;;;;-145.50;100.00;65435.88;4883627;29;20467;-37
2021/06/09 08:27:53;;;;;;;34.90;28.67;;;;;;;-145.50;100.00;65435.88;4880648;29;20103;-37
2021/06/09 08:30:21;;;;;;;36.20;29.80;;;;;;;-145.50;100.00;65435.88;4888893;29;20084;-37
2021/06/09 08:32:48;;;;;;;;;;;;;;;-145.50;100.00;65435.88;4885734;29;20106;-37
2021/06/09 08:35:15;;;;;;;32.63;27.30;;;;;;;-145.50;100.00;65435.88;4895724;29;19990;-37
2021/06/09 08:37:42;;;;;;;33.67;26.85;;;;;;;-145.50;100.00;65435.88;4888256;29;20460;-37
2021/06/09 08:40:11;;;;;;;34.45;29.05;;;;;;;-145.50;100.00;65435.88;4894397;29;20123;-37
2021/06/09 08:42:41;;;;;;;35.90;29.67;;;;;;;-145.50;100.00;65435.88;4885260;29;20097;-37
2021/06/09 08:45:11;;;;;;;30.95;25.30;;;;;;;-145.50;100.00;65435.88;4891302;29;20086;-37
2021/06/09 08:47:38;;;;;;;33.38;27.65;;;;;;;-145.50;100.00;65435.88;4882699;29;20151;-37
2021/06/09 08:50:07;;;;;;;;;;;;;;;-145.50;100.00;65435.88;4893227;29;20160;-37
2021/06/09 08:52:39;;;;;;;30.75;24.42;;;;;;;-145.50;100.00;65435.88;4891980;29;20006;-37
2021/06/09 08:55:06;;;;;;;26.73;21.83;;;;;;;-145.50;100.00;65435.88;4888375;29;20441;-37
2021/06/09 08:57:34;;;;;;;28.40;23.35;;;;;;;-145.50;100.00;65435.88;4893314;29;20099;-39
2021/06/09 09:00:00;;;;;;;28.63;23.63;;;;;;;-145.50;100.00;65435.88;4884871;29;20058;-37
2021/06/09 09:02:27;;;;;;;27.90;23.02;;;;;;;-145.50;100.00;65435.88;4893447;29;20092;-37
2021/06/09 09:04:55;;;;;;;29.30;24.88;;;;;;;-145.50;100.00;65435.88;4886166;29;20131;-37
2021/06/09 09:07:24;;;;;;;34.60;26.83;;;;;;;-145.50;100.00;65435.88;4892317;29;20139;-37
2021/06/09 09:09:50;;;;;;;24.48;21.90;;;;;;;-145.50;100.00;65435.88;4889296;29;20334;-37
2021/06/09 09:12:17;;;;;;;30.00;21.65;;;;;;;-145.50;100.00;65435.88;4883447;29;20088;-36
2021/06/09 09:14:43;;;;;;;27.80;22.90;;;;;;;-145.50;100.00;65435.88;4889851;29;20057;-36
2021/06/09 09:17:12;;;;;;;26.52;21.48;;;;;;;-145.50;100.00;65435.88;4887086;29;20139;-36
2021/06/09 09:19:40;;;;;;;;;;;;;;;-145.50;100.00;65435.88;4887948;29;20513;-36
2021/06/09 09:22:08;;;;;;;32.47;27.52;;;;;;;-145.50;100.00;65435.88;4888243;29;20014;-36
2021/06/09 09:24:41;;;;;;;28.27;22.92;;;;;;;-145.50;100.00;65435.88;4889931;29;20134;-37
2021/06/09 09:27:08;;;;;;;27.95;24.02;;;;;;;-145.50;100.00;65435.88;4892065;29;20084;-37
2021/06/09 09:29:35;;;;;;;27.10;23.20;;;;;;;-145.50;100.00;65435.88;4884690;29;20080;-37
2021/06/09 09:32:07;;;;;;;32.28;25.40;;;;;;;-145.50;100.00;65435.88;4889589;29;20113;-37
2021/06/09 09:34:39;;;;;;;27.67;24.67;;;;;;;-145.50;100.00;65435.88;4882935;29;20112;-37
2021/06/09 09:37:16;;;;;;;27.65;22.60;;;;;;;-145.50;100.00;65435.88;4889014;29;20139;-37
2021/06/09 09:39:50;;;;;;;27.42;21.13;;;;;;;-145.50;100.00;65435.88;4887103;29;20139;-37
2021/06/09 09:42:34;;;;;;;30.58;26.25;;;;;;;-145.50;100.00;65435.88;4890723;29;20060;-37
2021/06/09 09:45:26;;;;;;;25.23;20.65;;;;;;;-145.50;100.00;65435.88;4887596;29;20056;-37
2021/06/09 09:48:14;;;;;;;20.35;17.73;;;;;;;-145.50;100.00;65435.88;4891861;29;20084;-36
2021/06/09 09:50:44;;;;;;;23.35;19.15;;;;;;;-145.50;100.00;65435.88;4884087;29;20600;-36
2021/06/09 09:53:22;;;;;;;24.85;21.27;;;;;;;-145.50;100.00;65435.88;4884571;29;20088;-36
2021/06/09 09:56:08;;;;;;;27.30;21.85;;;;;;;-145.50;100.00;65435.88;4887964;29;20152;-36
2021/06/09 09:59:02;;;;;;;31.17;20.40;;;;;;;-145.50;100.00;65435.88;4891399;29;20131;-36
2021/06/09 10:01:42;;;;;;;24.73;20.13;;;;;;;-145.50;100.00;65435.88;4880765;29;20116;-36
2021/06/09 10:04:16;;;;;;;21.73;18.30;;;;;;;-145.50;100.00;65435.88;4889455;29;20080;-36
2021/06/09 10:06:45;;;;;;;21.45;17.92;;;;;;;-145.50;100.00;65435.88;4888960;29;20083;-36
2021/06/09 10:09:15;;;;;;;22.23;19.15;;;;;;;-145.50;100.00;65435.88;4888846;29;20757;-36
2021/06/09 10:11:53;;;;;;;23.80;19.85;;;;;;;-145.50;100.00;65435.88;4892589;29;20067;-36
2021/06/09 10:14:26;;;;;;;22.67;18.58;;;;;;;-145.50;100.00;65435.88;4884359;29;20056;-37
2021/06/09 10:16:59;;;;;;;24.55;20.73;;;;;;;-145.50;100.00;65435.88;4891445;29;20087;-37
2021/06/09 10:19:40;;;;;;;26.73;20.17;;;;;;;-145.50;100.00;65435.88;4879619;29;20070;-37
2021/06/09 10:22:10;;;;;;;26.17;20.58;;;;;;;-145.50;100.00;65435.88;4888362;29;20139;-37
2021/06/09 10:24:46;;;;;;;28.55;23.90;;;;;;;-145.50;100.00;65435.88;4884861;29;20088;-37
2021/06/09 10:27:14;;;;;;;30.08;22.80;;;;;;;-145.50;100.00;65435.88;4893340;29;20140;-37
2021/06/09 10:29:41;;;;;;;29.67;23.95;;;;;;;-145.50;100.00;65435.88;4885436;29;20682;-37
2021/06/09 10:32:11;;;;;;;29.10;23.73;;;;;;;-145.50;100.00;65435.88;4888867;29;20087;-37
2021/06/09 10:34:38;;;;;;;32.03;24.58;;;;;;;-145.50;100.00;65435.88;4887058;29;20147;-37
2021/06/09 10:37:07;;;;;;;31.92;23.63;;;;;;;-145.50;100.00;65435.88;4887150;29;20052;-37
2021/06/09 10:39:36;;;;;;;23.08;18.70;;;;;;;-145.50;100.00;65435.88;4892280;29;20479;-37
2021/06/09 10:42:10;;;;;;;21.60;16.15;;;;;;;-145.50;100.00;65435.88;4884020;29;20151;-37
2021/06/09 10:44:39;;;;;;;23.67;18.35;;;;;;;-145.50;100.00;65435.88;4889253;29;20147;-37
2021/06/09 10:47:11;;;;;;;22.50;17.90;;;;;;;-145.50;100.00;65435.88;4882673;29;20048;-37
2021/06/09 10:49:38;;;;;;;18.00;14.40;;;;;;;-145.50;100.00;65435.88;4890416;29;20150;-37
2021/06/09 10:52:06;;;;;;;19.23;15.48;;;;;;;-145.50;100.00;65435.88;4885650;29;20464;-37
2021/06/09 10:54:33;;;;;;;19.38;15.38;;;;;;;-145.50;100.00;65435.88;4893309;29;20132;-37
2021/06/09 10:57:00;;;;;;;14.73;11.73;;;;;;;-145.50;100.00;65435.88;4891484;29;20127;-37
2021/06/09 10:59:31;;;;;;;15.65;10.02;;;;;;;-145.50;100.00;65435.88;4882138;29;20575;-37
2021/06/09 11:02:08;;;;;;;19.27;14.13;;;;;;;-145.50;100.00;65435.88;4886800;29;20710;-37
2021/06/09 11:04:41;;;;;;;18.08;11.77;;;;;;;-145.50;100.00;65435.88;4888995;29;20052;-37
2021/06/09 11:07:32;;;;;;;15.85;11.38;;;;;;;-145.50;100.00;65435.88;4893996;29;20091;-37
2021/06/09 11:10:01;;;;;;;13.90;11.10;;;;;;;-145.50;100.00;65435.88;4885963;29;20378;-37